• Join FlightAware (Why Join?)
  • Login
  • US Flag 
02:56PM EDT


 

Airport Tracker/Info


-or-


 

Live Flight TrackerFlight Track Log ✈ N468QS ✈ 24-Sep-2013 ✈ KEWR - KHYA

Flight Track Log - Related Links

Times and Time Zones

All times are in EDT time to prevent confusion due to time zone crossing. See the N468QS flight status page for this flight to view local times or setup timezone preferences in your user account.

Time Position Orientation Groundspeed Altitude Reporting Facility
EDT Latitude Longitude Course Direction KTS MPH feet Rate Location/Type
05:37PM 40.7167 -74.2333 346° North 204 235 2,000  Level New York TRACON
05:38PM 40.7667 -74.2500 346° North 208 239 3,000 2,100 Climbing New York TRACON
05:39PM 40.8333 -74.2667 349° North 250 288 6,000 1,500 Climbing New York TRACON
05:40PM 40.9000 -74.2333 21° North 261 300 6,100  Climbing New York TRACON
05:41PM 40.9667 -74.2000 21° North 253 291 6,000 -60 Descending New York TRACON
05:42PM 41.0333 -74.1833 11° North 255 293 6,000  Level New York TRACON
05:43PM 41.1000 -74.1500 21° North 256 295 6,100 1,800 Climbing New York TRACON
05:44PM 41.1667 -74.1000 29° Northeast 277 319 9,700 2,400 Climbing New York TRACON
05:46PM 41.1889 -73.8744 82° East 356 410 13,000 1,140 Climbing Boston Center
05:47PM 41.2028 -73.7478 82° East 373 429 13,000  Level Boston Center
05:48PM 41.2211 -73.5964 81° East 373 429 13,100 960 Climbing Boston Center
05:49PM 41.2350 -73.4697 82° East 373 429 15,000 1,980 Climbing Boston Center
05:50PM 41.2528 -73.3181 81° East 395 455 17,000 1,020 Climbing Boston Center
05:51PM 41.2706 -73.1528 82° East 407 468 17,100  Climbing Boston Center
05:52PM 41.2797 -73.0147 85° East 412 474 17,100 -60 Level Boston Center
05:53PM 41.2908 -72.8461 85° East 412 474 17,000 -60 Descending Boston Center
05:54PM 41.2975 -72.7108 86° East 412 474 17,000  Level Boston Center
05:55PM 41.3042 -72.5394 87° East 412 474 17,000  Level Boston Center
05:56PM 41.3125 -72.3986 85° East 420 483 17,000  Level Boston Center
05:57PM 41.3228 -72.2300 85° East 420 483 17,000  Level Boston Center
05:58PM 41.3308 -72.0892 86° East 420 483 17,000  Level Boston Center
05:59PM 41.3383 -71.9203 87° East 420 483 17,000  Level Boston Center
06:00PM 41.3461 -71.7819 86° East 420 483 17,000  Level Boston Center
06:01PM 41.3533 -71.6106 87° East 420 483 17,000 -60 Level Boston Center
06:02PM 41.3583 -71.4722 87° East 420 483 16,900 -900 Descending Boston Center
06:03PM 41.3653 -71.3061 87° East 420 483 15,300 -1,500 Descending Boston Center
06:04PM 41.3722 -71.1733 86° East 406 467 13,900 -1,500 Descending Boston Center
06:05PM 41.3786 -71.0153 87° East 394 453 12,300 -1,440 Descending Boston Center
06:06PM 41.3811 -70.8908 88° East 384 442 11,000 -660 Descending Boston Center
06:07PM 41.3914 -70.7356 85° East 378 435 11,000 -360 Level Boston Center
06:08PM 41.3958 -70.6219 87° East 366 421 10,300 -1,200 Descending Boston Center
06:09PM 41.4125 -70.5053 79° East 310 357 8,600 -1,800 Descending Boston Center
06:10PM 41.4531 -70.4264 56° Northeast 281 323 6,700 -1,620 Descending Boston Center
06:11PM 41.4908 -70.3394 60° Northeast 276 318 5,500 -1,140 Descending Boston Center
06:12PM 41.5228 -70.2606 62° Northeast 260 299 4,500 -1,320 Descending Boston Center
06:13PM 41.5592 -70.2039 49° Northeast 228 262 2,900 -1,380 Descending Boston Center
06:14PM 41.6008 -70.2053 359° North 179 206 1,700 -1,020 Descending Boston Center
06:15PM 41.6289 -70.2461 313° West 128 147 900 -780 Descending Boston Center
06:16PM 41.6586 -70.2783 321° Northwest 128 147 200 -420 Descending Boston Center
06:17PM 41.6944 -70.3050 331° Northwest 128 147 100 5,460 Descending Boston Center
06:18PM 41.7264 -70.3317 328° Northwest 128 147 11,000 5,400 Climbing Boston Center
06:19PM 41.7581 -70.3583 328° Northwest 128 147 11,000  Level Boston Center
06:21PM 41.6693 -70.2804 147° Southeast  Level Estimated
06:28PM 41.6693 -70.2804 346° North  Level Estimated
06:29PM 41.6693 -70.2804 346° North  Level Estimated
06:30PM 41.6693 -70.2804 346° North  Level Estimated
06:31PM 41.6693 -70.2804 346° North  Level Estimated